createdAt,value
2018-04-19T00:08:44.700Z,0
2018-04-19T00:18:39.865Z,0
2018-04-19T00:28:35.274Z,0
2018-04-19T00:38:35.217Z,0
2018-04-19T00:48:35.281Z,0
2018-04-19T00:58:35.211Z,0
2018-04-19T01:08:35.284Z,0
2018-04-19T01:18:35.263Z,0
2018-04-19T01:28:35.259Z,0
2018-04-19T01:38:35.257Z,0
2018-04-19T01:48:35.265Z,0
2018-04-19T01:58:35.182Z,0
2018-04-19T02:08:35.300Z,0
2018-04-19T02:18:35.182Z,0
2018-04-19T02:28:35.297Z,0
2018-04-19T02:38:35.265Z,0
2018-04-19T02:48:35.225Z,0
2018-04-19T02:58:35.250Z,0
2018-04-19T03:08:35.300Z,0
2018-04-19T03:18:35.265Z,0
2018-04-19T03:28:35.223Z,0
2018-04-19T03:38:35.241Z,0
2018-04-19T03:48:35.339Z,0
2018-04-19T03:58:35.241Z,0
2018-04-19T04:08:35.193Z,0
2018-04-19T04:18:35.261Z,0
2018-04-19T04:28:35.269Z,5
2018-04-19T04:38:35.325Z,15
2018-04-19T04:48:35.279Z,25
2018-04-19T04:59:09.592Z,30
2018-04-19T05:09:13.190Z,40
2018-04-19T05:18:42.880Z,50
2018-04-19T05:28:46.900Z,55
2018-04-19T05:38:44.463Z,65
2018-04-19T05:48:44.765Z,70
2018-04-19T05:58:44.883Z,80
2018-04-19T06:08:35.311Z,85
2018-04-19T06:18:35.180Z,90
2018-04-19T06:28:35.257Z,95
2018-04-19T06:38:35.221Z,95
2018-04-19T06:48:35.185Z,95
2018-04-19T06:58:35.925Z,100
2018-04-19T07:08:35.244Z,100
2018-04-19T07:18:35.204Z,110
2018-04-19T07:28:35.229Z,130
2018-04-19T07:38:35.222Z,205
2018-04-19T07:48:35.214Z,320
2018-04-19T07:58:35.241Z,330
2018-04-19T08:08:35.250Z,315
2018-04-19T08:18:35.201Z,300
2018-04-19T08:28:35.307Z,280
2018-04-19T08:38:35.215Z,150
2018-04-19T08:48:35.295Z,110
2018-04-19T08:58:36.136Z,110
2018-04-19T09:08:35.261Z,110
2018-04-19T09:18:35.297Z,115
2018-04-19T09:28:35.349Z,110
2018-04-19T09:38:35.293Z,110
2018-04-19T09:48:35.214Z,110
2018-04-19T09:58:35.406Z,110
2018-04-19T10:08:35.305Z,110
2018-04-19T10:18:35.308Z,110
2018-04-19T10:28:35.303Z,115
2018-04-19T10:38:35.313Z,110
2018-04-19T10:48:35.242Z,110
2018-04-19T10:58:35.242Z,115
2018-04-19T11:08:35.570Z,115
2018-04-19T11:18:35.282Z,120
2018-04-19T11:28:35.360Z,120
2018-04-19T11:38:35.339Z,115
2018-04-19T11:48:35.291Z,110
2018-04-19T11:58:35.312Z,120
2018-04-19T12:08:35.267Z,120
2018-04-19T12:18:35.384Z,120
2018-04-19T12:28:35.559Z,115
2018-04-19T12:38:35.369Z,120
2018-04-19T12:48:35.259Z,120
2018-04-19T12:58:35.301Z,120
2018-04-19T13:08:35.332Z,125
2018-04-19T13:18:35.700Z,120
2018-04-19T13:28:35.339Z,120
2018-04-19T13:38:35.316Z,120
2018-04-19T13:48:35.399Z,115
2018-04-19T13:58:35.318Z,120
2018-04-19T14:08:35.287Z,115
2018-04-19T14:18:35.339Z,115
2018-04-19T14:28:35.198Z,110
2018-04-19T14:38:35.291Z,110
2018-04-19T14:48:35.290Z,110
2018-04-19T14:58:35.359Z,110
2018-04-19T15:08:35.315Z,110
2018-04-19T15:18:35.406Z,105
2018-04-19T15:28:35.358Z,100
2018-04-19T15:38:35.328Z,95
2018-04-19T15:48:35.344Z,95
2018-04-19T15:58:35.707Z,90
2018-04-19T16:08:35.343Z,85
2018-04-19T16:18:35.332Z,80
2018-04-19T16:28:35.981Z,75
2018-04-19T16:38:35.391Z,75
2018-04-19T16:48:35.436Z,65
2018-04-19T16:58:35.458Z,55
2018-04-19T17:08:36.433Z,55
2018-04-19T17:18:35.356Z,50
2018-04-19T17:28:35.406Z,45
2018-04-19T17:38:35.324Z,40
2018-04-19T17:48:35.342Z,35
2018-04-19T17:58:35.458Z,30
2018-04-19T18:08:35.365Z,20
2018-04-19T18:18:35.499Z,15
2018-04-19T18:28:35.461Z,5
2018-04-19T18:38:35.524Z,0
2018-04-19T18:48:35.337Z,0
2018-04-19T18:58:35.352Z,0
2018-04-19T19:08:35.359Z,0
2018-04-19T19:18:35.401Z,0
2018-04-19T19:28:35.464Z,0
2018-04-19T19:38:35.634Z,0
2018-04-19T19:48:36.468Z,0
2018-04-19T19:58:35.373Z,0
2018-04-19T20:08:35.661Z,0
2018-04-19T20:18:35.555Z,0
2018-04-19T20:28:35.399Z,0
2018-04-19T20:38:35.529Z,0
2018-04-19T20:48:35.418Z,0
2018-04-19T20:58:36.856Z,0
2018-04-19T21:08:35.486Z,0
2018-04-19T21:18:35.443Z,0
2018-04-19T21:28:35.442Z,0
2018-04-19T21:38:35.366Z,0
2018-04-19T21:48:35.435Z,0
2018-04-19T21:58:35.373Z,0
2018-04-19T22:08:35.476Z,0
2018-04-19T22:18:35.368Z,0
2018-04-19T22:28:35.442Z,0
2018-04-19T22:38:35.408Z,0
2018-04-19T22:48:35.573Z,0
2018-04-19T22:58:35.535Z,0
2018-04-19T23:08:35.554Z,0
2018-04-19T23:18:35.560Z,0
2018-04-19T23:28:35.573Z,0
2018-04-19T23:38:35.583Z,0
2018-04-19T23:48:35.572Z,0
2018-04-19T23:58:35.591Z,0
